Time;durP1;ratioP1;P1;durP2;ratioP2;P2;SDS_P1;SDS_P2;PMS_P1;PMS_P2;Temp;Humidity;BMP_temperature;BMP_pressure;BME280_temperature;BME280_humidity;BME280_pressure;Samples;Min_cycle;Max_cycle;Signal;HPM_P1;HPM_P2
2021/10/31 00:02:15;;;;;;;67.27;50.73;;;6.90;99.90;;;;;;6324215;27;20803;-63
2021/10/31 00:05:18;;;;;;;69.80;50.80;;;6.90;99.90;;;;;;6324157;28;20476;-63
2021/10/31 00:08:21;;;;;;;75.43;54.93;;;6.80;99.90;;;;;;6324137;28;20468;-63
2021/10/31 00:11:26;;;;;;;67.87;50.93;;;6.60;99.90;;;;;;6322440;28;20510;-63
2021/10/31 00:14:29;;;;;;;60.27;47.20;;;6.60;99.90;;;;;;6318458;27;20465;-64
2021/10/31 00:17:32;;;;;;;56.80;48.03;;;6.50;99.90;;;;;;6323827;28;20436;-61
2021/10/31 00:20:35;;;;;;;53.97;45.77;;;6.40;99.90;;;;;;6323952;28;20471;-64
2021/10/31 00:23:38;;;;;;;52.53;42.50;;;6.40;99.90;;;;;;6324736;28;20444;-65
2021/10/31 00:26:43;;;;;;;57.10;44.53;;;6.30;99.90;;;;;;6325199;28;20896;-65
2021/10/31 00:29:46;;;;;;;50.00;44.30;;;6.20;99.90;;;;;;6324392;28;20951;-65
2021/10/31 00:32:49;;;;;;;55.80;46.63;;;6.20;99.90;;;;;;6324465;28;20938;-65
2021/10/31 00:35:52;;;;;;;63.80;47.40;;;6.20;99.90;;;;;;6324471;28;20460;-64
2021/10/31 00:38:55;;;;;;;53.80;43.87;;;6.20;99.90;;;;;;6325132;28;20467;-65
2021/10/31 00:42:00;;;;;;;51.80;42.00;;;6.10;99.90;;;;;;6325214;28;20546;-64
2021/10/31 00:45:05;;;;;;;51.83;42.30;;;6.10;99.90;;;;;;6324662;28;20468;-64
2021/10/31 00:48:08;;;;;;;48.40;42.47;;;6.10;99.90;;;;;;6325440;28;20474;-62
2021/10/31 00:51:11;;;;;;;53.90;43.23;;;6.00;99.90;;;;;;6324409;28;20976;-64
2021/10/31 00:54:15;;;;;;;51.33;42.70;;;5.90;99.90;;;;;;6324792;28;20809;-64
2021/10/31 00:57:20;;;;;;;55.30;45.47;;;5.90;99.90;;;;;;6324330;28;20468;-63
2021/10/31 01:00:23;;;;;;;59.87;47.77;;;5.90;99.90;;;;;;6324433;28;20547;-63
2021/10/31 01:03:26;;;;;;;68.83;52.73;;;5.90;99.90;;;;;;6324584;28;20472;-63
2021/10/31 01:06:55;;;;;;;61.80;48.93;;;6.00;99.90;;;;;;6324295;28;20468;-63
2021/10/31 01:10:09;;;;;;;61.53;48.77;;;6.00;99.90;;;;;;6324572;28;20476;-63
2021/10/31 01:13:32;;;;;;;68.43;52.40;;;6.10;99.90;;;;;;6324552;28;20476;-63
2021/10/31 01:16:47;;;;;;;65.27;49.00;;;6.20;99.90;;;;;;6320410;28;20473;-64
2021/10/31 01:20:06;;;;;;;65.90;51.77;;;6.20;99.90;;;;;;6323335;28;20967;-64
2021/10/31 01:23:33;;;;;;;65.97;53.23;;;6.20;99.90;;;;;;6324542;28;20468;-65
2021/10/31 01:26:55;;;;;;;64.30;48.20;;;6.20;99.90;;;;;;6324474;27;20796;-65
2021/10/31 01:30:13;;;;;;;60.20;50.33;;;6.20;99.90;;;;;;6324704;28;20789;-64
2021/10/31 01:33:33;;;;;;;64.90;49.77;;;6.30;99.90;;;;;;6324457;28;20472;-65
2021/10/31 01:36:49;;;;;;;69.60;49.20;;;6.30;99.90;;;;;;6324575;28;20479;-65
2021/10/31 01:40:00;;;;;;;60.43;47.73;;;6.20;99.90;;;;;;6323718;28;20815;-65
2021/10/31 01:43:08;;;;;;;62.70;48.93;;;6.20;99.90;;;;;;6324284;28;20472;-65
2021/10/31 01:46:25;;;;;;;63.97;46.63;;;6.20;99.90;;;;;;6326560;28;20468;-64
2021/10/31 01:49:40;;;;;;;63.60;46.27;;;6.20;99.90;;;;;;6328332;28;20487;-64
2021/10/31 01:52:49;;;;;;;64.37;48.90;;;6.20;99.90;;;;;;6328675;28;20476;-64
2021/10/31 01:55:57;;;;;;;67.10;49.77;;;6.20;99.90;;;;;;6329016;28;20461;-64
2021/10/31 01:59:05;;;;;;;70.83;50.03;;;6.20;99.90;;;;;;6329243;28;20537;-64
2021/10/31 02:02:11;;;;;;;67.83;48.80;;;6.20;99.90;;;;;;6328468;28;20472;-64
2021/10/31 02:05:18;;;;;;;71.17;49.70;;;6.20;99.90;;;;;;6328198;28;20480;-64
2021/10/31 02:08:24;;;;;;;65.53;48.30;;;6.20;99.90;;;;;;6328517;28;20475;-64
2021/10/31 02:11:28;;;;;;;60.40;47.27;;;6.20;99.90;;;;;;6327582;28;20472;-64
2021/10/31 02:14:33;;;;;;;67.83;48.67;;;6.20;99.90;;;;;;6327939;27;20468;-64
2021/10/31 02:17:38;;;;;;;68.70;50.80;;;6.30;99.90;;;;;;6327631;28;20448;-64
2021/10/31 02:20:43;;;;;;;63.40;48.70;;;6.20;99.90;;;;;;6327999;28;20468;-64
2021/10/31 02:23:48;;;;;;;60.87;47.87;;;6.30;99.90;;;;;;6327526;28;20451;-63
2021/10/31 02:26:51;;;;;;;66.90;49.23;;;6.30;99.90;;;;;;6327998;28;20463;-63
2021/10/31 02:29:59;;;;;;;67.73;49.70;;;6.20;99.90;;;;;;6327424;28;20475;-64
2021/10/31 02:33:02;;;;;;;65.93;49.40;;;6.10;99.90;;;;;;6327999;28;20484;-64
2021/10/31 02:36:05;;;;;;;66.87;47.47;;;6.10;99.90;;;;;;6327091;28;20930;-64
2021/10/31 02:39:10;;;;;;;59.50;46.60;;;6.10;99.90;;;;;;6327550;28;20491;-65
2021/10/31 02:42:14;;;;;;;61.90;48.40;;;6.20;99.90;;;;;;6327418;28;20535;-64
2021/10/31 02:45:18;;;;;;;61.70;47.00;;;6.20;99.90;;;;;;6327327;27;20495;-64
2021/10/31 02:48:21;;;;;;;55.13;43.80;;;6.10;99.90;;;;;;6327172;28;20974;-64
2021/10/31 02:51:37;;;;;;;55.80;45.13;;;6.00;99.90;;;;;;6327469;28;20468;-64
2021/10/31 02:54:51;;;;;;;50.90;44.10;;;5.90;99.90;;;;;;6327138;28;20856;-63
2021/10/31 02:58:01;;;;;;;49.63;41.20;;;5.70;99.90;;;;;;6326462;28;20530;-64
2021/10/31 03:01:07;;;;;;;52.17;42.93;;;5.70;99.90;;;;;;6326994;28;20488;-64
2021/10/31 03:04:11;;;;;;;54.77;44.37;;;5.60;99.90;;;;;;6327781;28;20550;-63
2021/10/31 03:07:16;;;;;;;59.77;46.87;;;5.50;99.90;;;;;;6326650;28;20903;-63
2021/10/31 03:10:20;;;;;;;55.80;43.37;;;5.50;99.90;;;;;;6326624;28;20476;-63
2021/10/31 03:13:25;;;;;;;56.83;44.40;;;5.40;99.90;;;;;;6326476;28;20460;-64
2021/10/31 03:16:28;;;;;;;56.33;42.40;;;5.30;99.90;;;;;;6326279;28;20963;-64
2021/10/31 03:19:32;;;;;;;55.97;42.73;;;5.30;99.90;;;;;;6326569;28;21048;-64
2021/10/31 03:22:35;;;;;;;51.83;43.17;;;5.30;99.90;;;;;;6326255;28;20464;-64
2021/10/31 03:25:40;;;;;;;56.70;46.13;;;5.30;99.90;;;;;;6326576;28;20994;-64
2021/10/31 03:28:43;;;;;;;52.67;42.67;;;5.30;99.90;;;;;;6326331;28;20479;-65
2021/10/31 03:31:46;;;;;;;58.17;45.60;;;5.40;99.90;;;;;;6326103;28;20476;-64
2021/10/31 03:34:49;;;;;;;58.40;46.20;;;5.30;99.90;;;;;;6327177;28;20475;-63
2021/10/31 03:37:53;;;;;;;54.10;43.60;;;5.30;99.90;;;;;;6326563;27;20483;-64
2021/10/31 03:40:57;;;;;;;54.80;44.20;;;5.30;99.90;;;;;;6325735;28;20476;-64
2021/10/31 03:44:01;;;;;;;45.97;40.97;;;5.30;99.90;;;;;;6326218;27;20804;-65
2021/10/31 03:47:07;;;;;;;57.30;42.47;;;5.30;99.90;;;;;;6326095;28;20476;-65
2021/10/31 03:50:10;;;;;;;57.90;44.87;;;5.30;99.90;;;;;;6325551;27;20974;-64
2021/10/31 03:53:13;;;;;;;50.03;41.50;;;5.30;99.90;;;;;;6325377;28;20472;-64
2021/10/31 03:56:18;;;;;;;57.23;45.37;;;5.30;99.90;;;;;;6325433;28;20979;-64
2021/10/31 03:59:22;;;;;;;53.27;41.97;;;5.40;99.90;;;;;;6325702;28;20485;-64
2021/10/31 04:02:25;;;;;;;56.47;43.07;;;5.30;99.90;;;;;;6325476;27;20468;-64
2021/10/31 04:05:28;;;;;;;54.17;42.83;;;5.30;99.90;;;;;;6325031;28;20985;-64
2021/10/31 04:08:31;;;;;;;50.97;42.83;;;5.20;99.90;;;;;;6325192;28;20939;-64
2021/10/31 04:11:36;;;;;;;53.53;43.37;;;5.20;99.90;;;;;;6325473;27;20472;-63
2021/10/31 04:14:39;;;;;;;54.10;44.30;;;5.10;99.90;;;;;;6325325;28;20444;-64
2021/10/31 04:17:42;;;;;;;49.47;42.10;;;5.00;99.90;;;;;;6325735;27;20451;-64
2021/10/31 04:20:45;;;;;;;56.33;43.67;;;5.00;99.90;;;;;;6325437;28;20465;-65
2021/10/31 04:23:48;;;;;;;54.27;43.97;;;5.00;99.90;;;;;;6320673;28;20445;-65
2021/10/31 04:26:53;;;;;;;50.53;41.50;;;5.00;99.90;;;;;;6324789;27;20460;-64
2021/10/31 04:29:56;;;;;;;53.00;42.00;;;4.90;99.90;;;;;;6325294;28;20475;-63
2021/10/31 04:32:59;;;;;;;53.97;43.77;;;4.90;99.90;;;;;;6324648;28;20474;-63
2021/10/31 04:36:03;;;;;;;48.80;41.60;;;4.90;99.90;;;;;;6325393;28;20476;-64
2021/10/31 04:39:06;;;;;;;54.97;44.57;;;4.80;99.90;;;;;;6324843;27;20472;-65
2021/10/31 04:42:12;;;;;;;52.70;42.10;;;4.80;99.90;;;;;;6325167;28;20567;-64
2021/10/31 04:45:15;;;;;;;53.47;42.73;;;4.70;99.90;;;;;;6325140;27;20545;-64
2021/10/31 04:48:19;;;;;;;52.13;41.93;;;4.70;99.90;;;;;;6324662;28;20475;-64
2021/10/31 04:51:22;;;;;;;48.63;41.20;;;4.60;99.90;;;;;;6324770;27;20491;-64
2021/10/31 04:54:25;;;;;;;49.43;41.40;;;4.50;99.90;;;;;;6324435;28;20807;-64
2021/10/31 04:57:30;;;;;;;44.53;38.80;;;4.60;99.90;;;;;;6324732;27;20476;-64
2021/10/31 05:00:33;;;;;;;49.37;40.57;;;4.50;99.90;;;;;;6324776;28;20509;-64
2021/10/31 05:03:37;;;;;;;46.50;39.70;;;4.50;99.90;;;;;;6324987;27;20476;-64
2021/10/31 05:06:40;;;;;;;50.57;40.30;;;4.50;99.90;;;;;;6324784;28;20480;-64
2021/10/31 05:09:43;;;;;;;49.00;40.60;;;4.60;99.90;;;;;;6325410;27;20483;-64
2021/10/31 05:12:48;;;;;;;48.10;41.57;;;4.50;99.90;;;;;;6323844;28;20475;-64
2021/10/31 05:15:51;;;;;;;48.50;39.73;;;4.50;99.90;;;;;;6324551;27;20468;-64
2021/10/31 05:18:55;;;;;;;46.10;40.77;;;4.50;99.90;;;;;;6324371;28;20530;-64
2021/10/31 05:21:58;;;;;;;48.07;40.60;;;4.50;99.90;;;;;;6328897;28;20522;-64
2021/10/31 05:25:01;;;;;;;47.77;38.73;;;4.40;99.90;;;;;;6329789;28;20464;-64
2021/10/31 05:28:06;;;;;;;51.73;42.53;;;4.40;99.90;;;;;;6329242;28;20480;-64
2021/10/31 05:31:09;;;;;;;51.23;41.40;;;4.50;99.90;;;;;;6320153;28;20464;-64
2021/10/31 05:34:13;;;;;;;64.20;46.43;;;4.50;99.90;;;;;;6329008;27;20479;-64
2021/10/31 05:37:16;;;;;;;64.27;47.93;;;4.70;99.90;;;;;;6329356;28;20517;-65
2021/10/31 05:40:19;;;;;;;65.40;47.10;;;4.70;99.90;;;;;;6329030;28;20970;-64
2021/10/31 05:43:24;;;;;;;65.70;44.97;;;4.80;99.90;;;;;;6329188;28;20468;-64
2021/10/31 05:46:28;;;;;;;64.67;44.63;;;4.80;99.90;;;;;;6328632;28;20839;-64
2021/10/31 05:49:32;;;;;;;65.87;48.00;;;4.90;99.90;;;;;;6328441;28;20468;-64
2021/10/31 05:52:37;;;;;;;62.57;45.57;;;4.90;99.90;;;;;;6328409;28;20494;-64
2021/10/31 05:55:41;;;;;;;66.20;47.33;;;4.90;99.90;;;;;;6329041;28;20468;-64
2021/10/31 05:58:45;;;;;;;62.73;45.10;;;5.10;99.90;;;;;;6328070;28;20906;-64
2021/10/31 06:01:48;;;;;;;63.30;45.13;;;5.20;99.90;;;;;;6328597;28;20479;-64
2021/10/31 06:04:52;;;;;;;50.73;40.43;;;5.20;99.90;;;;;;6328756;28;20818;-64
2021/10/31 06:07:55;;;;;;;59.53;43.63;;;5.30;99.90;;;;;;6328392;28;20479;-64
2021/10/31 06:10:58;;;;;;;61.80;46.07;;;5.40;99.90;;;;;;6328220;28;20820;-65
2021/10/31 06:14:19;;;;;;;49.87;37.97;;;5.40;99.90;;;;;;6328366;28;20991;-65
2021/10/31 06:17:22;;;;;;;54.63;40.00;;;5.50;99.90;;;;;;6328378;28;20862;-64
2021/10/31 06:20:25;;;;;;;54.10;42.27;;;5.50;99.90;;;;;;6328042;28;20476;-65
2021/10/31 06:23:28;;;;;;;53.00;39.90;;;5.60;99.90;;;;;;6327599;28;20475;-65
2021/10/31 06:26:35;;;;;;;57.60;41.10;;;5.60;99.90;;;;;;6327523;27;20464;-64
2021/10/31 06:29:40;;;;;;;52.47;41.10;;;5.70;99.90;;;;;;6327498;28;20464;-65
2021/10/31 06:32:43;;;;;;;52.73;41.17;;;5.80;99.90;;;;;;6321948;28;20436;-65
2021/10/31 06:35:46;;;;;;;49.73;40.40;;;5.90;99.90;;;;;;6328154;27;20445;-64
2021/10/31 06:38:49;;;;;;;54.90;41.93;;;6.00;99.90;;;;;;6327909;28;20460;-65
2021/10/31 06:41:53;;;;;;;53.30;42.23;;;6.20;99.90;;;;;;6328167;28;20542;-65
2021/10/31 06:44:57;;;;;;;47.73;38.47;;;6.30;99.90;;;;;;6330473;28;20476;-64
2021/10/31 06:48:02;;;;;;;51.00;40.90;;;6.30;99.90;;;;;;6329502;28;20471;-65
2021/10/31 06:51:05;;;;;;;74.70;51.50;;;6.40;99.90;;;;;;6327499;28;20479;-65
2021/10/31 06:54:09;;;;;;;102.37;62.77;;;6.40;99.90;;;;;;6327278;27;20456;-65
2021/10/31 06:57:13;;;;;;;59.97;45.53;;;6.50;99.90;;;;;;6327942;28;20807;-64
2021/10/31 07:00:17;;;;;;;58.07;45.07;;;6.50;99.90;;;;;;6328925;27;20468;-65
2021/10/31 07:03:21;;;;;;;76.00;56.90;;;6.50;99.90;;;;;;6329316;28;20456;-65
2021/10/31 07:06:24;;;;;;;50.83;41.07;;;6.60;99.90;;;;;;6328691;27;20468;-65
2021/10/31 07:09:31;;;;;;;53.50;41.90;;;6.70;99.90;;;;;;6328951;28;20475;-65
2021/10/31 07:12:34;;;;;;;53.03;41.20;;;6.80;99.90;;;;;;6327721;28;20475;-65
2021/10/31 07:15:39;;;;;;;48.00;39.20;;;6.90;99.90;;;;;;6327281;28;20475;-63
2021/10/31 07:18:42;;;;;;;44.70;39.83;;;7.00;99.90;;;;;;6327001;28;20468;-64
2021/10/31 07:21:46;;;;;;;48.03;39.40;;;7.10;99.90;;;;;;6326599;28;20959;-64
2021/10/31 07:24:50;;;;;;;50.60;41.83;;;7.20;99.90;;;;;;6326405;28;20807;-65
2021/10/31 07:27:53;;;;;;;44.00;39.27;;;7.30;99.90;;;;;;6326029;28;20472;-64
2021/10/31 07:31:01;;;;;;;46.13;39.13;;;7.40;99.90;;;;;;6325760;27;20959;-64
2021/10/31 07:34:08;;;;;;;45.50;40.60;;;7.50;99.90;;;;;;6326798;28;20475;-64
2021/10/31 07:37:11;;;;;;;45.53;39.23;;;7.60;99.90;;;;;;6326202;28;20456;-64
2021/10/31 07:40:14;;;;;;;51.27;41.80;;;7.80;99.90;;;;;;6326072;28;20483;-64
2021/10/31 07:43:17;;;;;;;50.10;41.20;;;7.80;99.90;;;;;;6326340;28;20476;-64
2021/10/31 07:46:22;;;;;;;48.63;41.53;;;7.90;99.90;;;;;;6326095;28;20491;-64
2021/10/31 07:49:26;;;;;;;44.23;39.47;;;7.90;99.90;;;;;;6325615;28;20815;-64
2021/10/31 07:52:29;;;;;;;47.70;41.17;;;7.90;99.90;;;;;;6325515;28;20463;-65
2021/10/31 07:55:33;;;;;;;47.33;39.50;;;7.80;99.90;;;;;;6325975;28;20476;-65
2021/10/31 07:58:36;;;;;;;46.23;39.40;;;7.80;99.90;;;;;;6325744;28;20478;-65
2021/10/31 08:01:41;;;;;;;44.90;39.40;;;7.90;99.90;;;;;;6325830;28;20464;-65
2021/10/31 08:04:45;;;;;;;47.20;39.30;;;7.90;99.90;;;;;;6325445;28;20555;-64
2021/10/31 08:07:48;;;;;;;45.07;38.80;;;8.00;99.90;;;;;;6325974;28;20483;-65
2021/10/31 08:10:51;;;;;;;41.80;36.37;;;8.20;99.90;;;;;;6325092;28;20541;-65
2021/10/31 08:13:54;;;;;;;40.57;36.20;;;8.40;99.90;;;;;;6325428;28;20468;-65
2021/10/31 08:16:59;;;;;;;41.57;37.00;;;8.50;99.90;;;;;;6324931;28;20959;-65
2021/10/31 08:20:03;;;;;;;43.57;38.87;;;8.60;99.90;;;;;;6325704;27;20476;-65
2021/10/31 08:23:07;;;;;;;41.57;37.33;;;8.80;99.90;;;;;;6328374;28;20472;-65
2021/10/31 08:26:10;;;;;;;42.63;38.03;;;8.90;99.90;;;;;;6328444;27;20526;-65
2021/10/31 08:29:17;;;;;;;42.47;38.10;;;9.10;99.90;;;;;;6324932;28;20944;-65
2021/10/31 08:32:24;;;;;;;39.10;35.00;;;9.30;99.90;;;;;;6325496;27;20486;-65
2021/10/31 08:35:28;;;;;;;40.20;35.77;;;9.50;99.80;;;;;;6324798;28;20472;-65
2021/10/31 08:38:31;;;;;;;41.93;35.73;;;9.60;99.60;;;;;;6325373;28;20461;-65
2021/10/31 08:41:35;;;;;;;40.33;35.27;;;9.90;99.30;;;;;;6324560;27;20496;-65
2021/10/31 08:44:38;;;;;;;39.83;35.50;;;10.10;98.30;;;;;;6324458;28;20444;-65
2021/10/31 08:47:43;;;;;;;40.90;34.40;;;10.30;97.90;;;;;;6325230;28;20482;-64
2021/10/31 08:50:46;;;;;;;37.97;33.83;;;10.50;97.80;;;;;;6325351;28;20525;-65
2021/10/31 08:53:50;;;;;;;56.80;43.40;;;10.70;97.80;;;;;;6325187;28;20773;-65
2021/10/31 08:56:53;;;;;;;37.97;34.27;;;11.20;97.10;;;;;;6329143;28;20452;-65
2021/10/31 08:59:56;;;;;;;34.80;31.23;;;13.10;96.70;;;;;;6329649;28;20904;-66
2021/10/31 09:03:01;;;;;;;36.37;32.67;;;16.90;91.70;;;;;;6330043;28;20468;-66
2021/10/31 09:06:05;;;;;;;35.60;32.07;;;20.00;69.40;;;;;;6329576;28;20482;-66
2021/10/31 09:09:08;;;;;;;37.27;33.67;;;21.00;59.10;;;;;;6330261;28;20464;-65
2021/10/31 09:12:13;;;;;;;37.40;33.87;;;19.80;58.10;;;;;;6329595;28;20237;-64
2021/10/31 09:15:16;;;;;;;37.50;33.63;;;18.60;60.10;;;;;;6329881;28;20229;-66
2021/10/31 09:18:23;;;;;;;37.33;33.50;;;17.40;64.00;;;;;;6329387;28;20608;-65
2021/10/31 09:21:28;;;;;;;38.67;34.73;;;16.80;67.80;;;;;;6329584;28;20483;-65
2021/10/31 09:24:31;;;;;;;37.17;33.67;;;18.70;67.30;;;;;;6329533;28;20464;-65
2021/10/31 09:27:36;;;;;;;38.20;34.40;;;22.20;57.50;;;;;;6329224;28;20724;-66
2021/10/31 09:30:42;;;;;;;35.73;32.53;;;25.40;49.80;;;;;;6329196;28;20535;-65
2021/10/31 09:33:47;;;;;;;38.60;35.10;;;27.80;42.70;;;;;;6329145;28;20279;-65
2021/10/31 09:36:50;;;;;;;40.80;37.30;;;29.60;37.00;;;;;;6328451;28;20225;-66
2021/10/31 09:39:53;;;;;;;40.63;37.07;;;31.10;33.30;;;;;;6328884;28;20233;-66
2021/10/31 09:42:59;;;;;;;40.10;36.80;;;32.10;31.40;;;;;;6328352;28;20567;-66
2021/10/31 09:46:05;;;;;;;39.63;36.60;;;33.60;29.20;;;;;;6323657;28;20318;-67
2021/10/31 09:49:11;;;;;;;37.75;34.80;;;34.60;27.30;;;;;;6328731;28;20229;-67
2021/10/31 09:52:14;;;;;;;41.38;37.97;;;35.40;26.70;;;;;;6328319;28;20569;-67
2021/10/31 09:55:17;;;;;;;42.45;39.05;;;35.20;26.30;;;;;;6328865;28;20228;-67
2021/10/31 09:58:23;;;;;;;40.13;36.97;;;36.10;25.80;;;;;;6328469;28;20217;-67
2021/10/31 10:01:38;;;;;;;40.80;37.55;;;36.80;24.80;;;;;;6328352;28;20234;-67
2021/10/31 10:04:50;;;;;;;40.90;37.78;;;37.60;24.00;;;;;;6328015;28;20669;-67
2021/10/31 10:08:09;;;;;;;41.03;38.05;;;38.00;23.10;;;;;;6327742;28;20225;-66
2021/10/31 10:11:18;;;;;;;42.42;39.15;;;37.60;23.40;;;;;;6327816;28;20249;-66
2021/10/31 10:14:26;;;;;;;41.10;38.00;;;37.10;23.10;;;;;;6327316;28;20248;-66
2021/10/31 10:17:46;;;;;;;41.58;38.38;;;36.80;23.30;;;;;;6328439;28;20266;-66
2021/10/31 10:20:53;;;;;;;40.28;37.25;;;37.20;23.60;;;;;;6327649;27;20226;-66
2021/10/31 10:23:58;;;;;;;38.60;35.60;;;37.50;23.20;;;;;;6328380;28;20222;-66
2021/10/31 10:27:08;;;;;;;39.88;36.58;;;37.50;22.90;;;;;;6328354;28;20237;-67
2021/10/31 10:30:13;;;;;;;40.13;37.03;;;38.10;22.90;;;;;;6327446;28;20236;-66
2021/10/31 10:33:20;;;;;;;38.95;35.85;;;37.80;22.70;;;;;;6327677;28;20236;-67
2021/10/31 10:36:25;;;;;;;39.42;36.50;;;36.00;23.60;;;;;;6327490;28;20226;-65
2021/10/31 10:39:34;;;;;;;40.38;37.17;;;36.30;23.70;;;;;;6327361;28;20244;-68
2021/10/31 10:42:40;;;;;;;36.58;33.67;;;36.60;23.20;;;;;;6327949;28;20225;-66
2021/10/31 10:45:43;;;;;;;37.60;34.72;;;37.60;23.10;;;;;;6327092;27;20233;-65
2021/10/31 10:48:55;;;;;;;38.22;35.42;;;38.60;22.40;;;;;;6317313;28;20229;-65
2021/10/31 10:52:21;;;;;;;39.08;36.00;;;38.50;22.20;;;;;;6327389;27;20244;-67
2021/10/31 10:55:27;;;;;;;37.28;34.47;;;37.50;22.80;;;;;;6326600;28;20236;-67
2021/10/31 10:58:34;;;;;;;35.45;32.85;;;38.30;22.50;;;;;;6327036;28;20240;-67
2021/10/31 11:01:38;;;;;;;36.13;33.47;;;39.70;21.90;;;;;;6326865;28;20226;-67
2021/10/31 11:04:44;;;;;;;37.78;34.88;;;39.50;21.20;;;;;;6326838;28;20225;-66
2021/10/31 11:07:50;;;;;;;38.17;35.20;;;39.40;21.40;;;;;;6327199;28;20230;-66
2021/10/31 11:10:56;;;;;;;42.40;38.90;;;39.50;21.30;;;;;;6327245;28;20245;-66
2021/10/31 11:14:00;;;;;;;41.10;37.80;;;39.50;21.50;;;;;;6326158;28;20240;-66
2021/10/31 11:17:04;;;;;;;37.25;33.70;;;38.50;21.80;;;;;;6325427;28;20590;-67
2021/10/31 11:20:10;;;;;;;43.30;39.20;;;38.40;22.10;;;;;;6323537;28;20226;-67
2021/10/31 11:23:17;;;;;;;35.97;33.08;;;38.80;21.60;;;;;;6323633;28;20236;-67
2021/10/31 11:26:24;;;;;;;37.28;34.38;;;38.50;21.90;;;;;;6323436;28;20230;-67
2021/10/31 11:29:31;;;;;;;55.30;50.15;;;38.70;21.60;;;;;;6323587;28;20230;-68
2021/10/31 11:32:36;;;;;;;41.85;38.33;;;38.30;21.60;;;;;;6324329;27;20268;-67
2021/10/31 11:35:40;;;;;;;37.85;34.80;;;37.10;22.80;;;;;;6326345;28;20216;-67
2021/10/31 11:38:47;;;;;;;39.45;36.22;;;38.40;22.60;;;;;;6326940;28;20233;-66
2021/10/31 11:41:51;;;;;;;38.53;35.13;;;39.10;21.50;;;;;;6327015;28;20200;-66
2021/10/31 11:45:04;;;;;;;36.75;33.65;;;39.60;21.10;;;;;;6327135;28;20233;-66
2021/10/31 11:48:13;;;;;;;35.65;32.55;;;37.50;21.90;;;;;;6326433;28;20234;-66
2021/10/31 11:51:16;;;;;;;34.45;31.77;;;37.80;22.10;;;;;;6321142;28;20283;-67
2021/10/31 11:54:21;;;;;;;45.28;41.17;;;38.60;21.50;;;;;;6326059;27;20287;-67
2021/10/31 11:57:26;;;;;;;34.00;31.20;;;38.90;21.50;;;;;;6326219;28;20221;-66
2021/10/31 12:00:29;;;;;;;40.38;37.08;;;39.00;21.40;;;;;;6325411;28;20233;-67
2021/10/31 12:03:43;;;;;;;36.88;33.88;;;39.30;21.10;;;;;;6326094;28;20236;-67
2021/10/31 12:06:50;;;;;;;38.33;35.28;;;38.80;21.30;;;;;;6325882;28;20225;-66
2021/10/31 12:09:57;;;;;;;34.45;31.13;;;36.80;22.60;;;;;;6325778;28;20229;-66
2021/10/31 12:13:13;;;;;;;32.88;30.30;;;36.10;23.30;;;;;;6325295;28;20248;-66
2021/10/31 12:16:18;;;;;;;34.67;31.88;;;35.90;23.60;;;;;;6325236;28;20237;-67
2021/10/31 12:19:24;;;;;;;35.75;32.65;;;35.80;23.70;;;;;;6325047;28;20236;-68
2021/10/31 12:22:36;;;;;;;33.95;31.35;;;35.60;23.80;;;;;;6324979;28;20233;-67
2021/10/31 12:25:41;;;;;;;34.97;32.17;;;35.30;24.20;;;;;;6325312;28;20226;-67
2021/10/31 12:28:45;;;;;;;35.45;32.65;;;36.00;24.10;;;;;;6324747;28;20238;-66
2021/10/31 12:31:55;;;;;;;36.00;33.10;;;36.30;23.40;;;;;;6323473;28;20232;-67
2021/10/31 12:35:00;;;;;;;36.63;33.55;;;36.00;23.70;;;;;;6324692;28;20230;-67
2021/10/31 12:38:31;;;;;;;34.40;31.50;;;35.00;24.50;;;;;;6324837;28;20225;-68
2021/10/31 12:41:35;;;;;;;36.22;33.33;;;35.10;24.60;;;;;;6320440;27;20228;-66
2021/10/31 12:44:40;;;;;;;42.78;39.20;;;34.70;25.10;;;;;;6325032;28;20202;-66
2021/10/31 12:47:45;;;;;;;43.70;40.22;;;34.00;25.60;;;;;;6324647;28;20212;-66
2021/10/31 12:50:49;;;;;;;39.95;36.55;;;33.70;26.00;;;;;;6324947;28;20233;-67
2021/10/31 12:53:53;;;;;;;42.05;38.60;;;33.90;25.90;;;;;;6319988;28;20210;-68
2021/10/31 12:56:58;;;;;;;42.03;38.45;;;33.50;26.20;;;;;;6324121;27;20225;-67
2021/10/31 13:00:04;;;;;;;43.35;39.83;;;32.60;26.40;;;;;;6324417;28;20233;-67
2021/10/31 13:03:07;;;;;;;42.17;38.30;;;30.60;28.40;;;;;;6324390;28;20286;-67
2021/10/31 13:06:11;;;;;;;40.47;37.10;;;30.20;29.00;;;;;;6324945;28;20225;-67
2021/10/31 13:09:14;;;;;;;37.45;34.33;;;31.00;28.60;;;;;;6324852;28;20294;-68
2021/10/31 13:12:29;;;;;;;37.53;34.22;;;31.80;27.70;;;;;;6324113;28;20294;-67
2021/10/31 13:15:34;;;;;;;36.83;33.63;;;32.60;26.90;;;;;;6324251;28;20241;-66
2021/10/31 13:18:37;;;;;;;37.50;34.30;;;32.00;27.00;;;;;;6324580;28;20225;-66
2021/10/31 13:21:42;;;;;;;36.97;33.60;;;32.30;27.00;;;;;;6324215;28;20680;-67
2021/10/31 13:24:48;;;;;;;37.60;34.38;;;32.80;26.20;;;;;;6324320;28;20562;-67
2021/10/31 13:27:54;;;;;;;30.33;27.92;;;32.50;26.30;;;;;;6324286;28;20287;-66
2021/10/31 13:30:59;;;;;;;31.67;28.98;;;32.60;26.00;;;;;;6324479;28;20230;-65
2021/10/31 13:34:07;;;;;;;33.05;29.98;;;32.30;25.80;;;;;;6324153;28;20229;-65
2021/10/31 13:37:12;;;;;;;28.97;26.57;;;31.30;26.30;;;;;;6324864;28;20731;-66
2021/10/31 13:40:15;;;;;;;28.57;25.97;;;30.90;26.70;;;;;;6324874;27;20245;-65
2021/10/31 13:43:20;;;;;;;27.17;24.67;;;30.00;27.50;;;;;;6329396;28;20699;-65
2021/10/31 13:46:23;;;;;;;25.90;23.70;;;28.90;28.40;;;;;;6330547;27;20240;-67
2021/10/31 13:49:27;;;;;;;26.70;24.40;;;26.90;30.00;;;;;;6328676;28;20308;-66
2021/10/31 13:52:30;;;;;;;25.80;23.50;;;25.30;32.40;;;;;;6329092;28;20230;-64
2021/10/31 13:55:36;;;;;;;25.37;23.10;;;23.20;35.60;;;;;;6328622;28;20221;-64
2021/10/31 13:58:41;;;;;;;22.63;20.43;;;21.80;37.60;;;;;;6323633;28;20238;-64
2021/10/31 14:01:46;;;;;;;23.23;20.90;;;19.70;41.50;;;;;;6328398;27;20245;-64
2021/10/31 14:05:04;;;;;;;20.83;18.83;;;18.90;43.10;;;;;;6328460;28;20240;-64
2021/10/31 14:08:07;;;;;;;22.27;19.97;;;18.70;44.00;;;;;;6328039;28;20229;-63
2021/10/31 14:11:13;;;;;;;20.83;18.67;;;18.40;44.70;;;;;;6328081;27;20242;-64
2021/10/31 14:14:30;;;;;;;22.83;20.60;;;18.00;45.60;;;;;;6328655;28;20230;-64
2021/10/31 14:17:34;;;;;;;26.73;24.10;;;17.70;46.90;;;;;;6327863;27;20472;-64
2021/10/31 14:20:39;;;;;;;25.57;23.03;;;17.70;48.90;;;;;;6328524;27;20457;-64
2021/10/31 14:23:42;;;;;;;29.60;26.57;;;17.60;49.60;;;;;;6328290;28;20443;-64
2021/10/31 14:26:46;;;;;;;28.10;25.10;;;17.50;50.10;;;;;;6327921;27;20892;-63
2021/10/31 14:29:50;;;;;;;27.50;24.10;;;17.40;50.90;;;;;;6328218;28;20456;-63
2021/10/31 14:33:02;;;;;;;28.53;25.63;;;17.20;51.10;;;;;;6328445;28;20456;-63
2021/10/31 14:36:07;;;;;;;26.60;23.90;;;17.10;51.60;;;;;;6327813;28;20476;-64
2021/10/31 14:39:10;;;;;;;27.17;24.37;;;16.90;52.10;;;;;;6327837;28;20521;-64
2021/10/31 14:42:25;;;;;;;26.73;24.00;;;16.70;52.50;;;;;;6327689;28;20461;-63
2021/10/31 14:45:30;;;;;;;27.63;24.70;;;16.50;53.00;;;;;;6327604;28;20468;-64
2021/10/31 14:48:36;;;;;;;25.13;22.43;;;16.30;53.50;;;;;;6327694;28;20511;-63
2021/10/31 14:51:40;;;;;;;28.67;25.77;;;16.20;54.20;;;;;;6327352;28;20971;-64
2021/10/31 14:54:47;;;;;;;26.40;23.70;;;16.10;54.90;;;;;;6326979;28;20780;-63
2021/10/31 14:57:55;;;;;;;27.30;24.50;;;15.90;55.30;;;;;;6327283;28;20476;-63
2021/10/31 15:00:59;;;;;;;26.13;23.43;;;15.80;55.80;;;;;;6327010;28;20952;-64
2021/10/31 15:04:02;;;;;;;27.07;24.17;;;15.80;56.50;;;;;;6322559;28;20483;-64
2021/10/31 15:07:08;;;;;;;26.40;23.30;;;15.60;57.20;;;;;;6327299;28;20483;-65
2021/10/31 15:10:13;;;;;;;25.53;22.83;;;15.50;57.60;;;;;;6326803;28;20468;-64
2021/10/31 15:13:16;;;;;;;25.27;22.53;;;15.50;58.60;;;;;;6326407;28;20468;-64
2021/10/31 15:16:21;;;;;;;25.83;23.13;;;15.40;58.80;;;;;;6326633;28;20468;-64
2021/10/31 15:19:24;;;;;;;25.03;22.57;;;15.20;59.60;;;;;;6326582;28;20549;-63
2021/10/31 15:22:28;;;;;;;26.63;23.77;;;15.00;60.80;;;;;;6326439;28;20475;-64
2021/10/31 15:25:31;;;;;;;28.83;25.83;;;14.90;61.60;;;;;;6326843;28;20483;-64
2021/10/31 15:28:34;;;;;;;26.20;23.00;;;14.80;62.50;;;;;;6326363;28;20935;-64
2021/10/31 15:31:39;;;;;;;26.37;23.50;;;14.70;62.90;;;;;;6326080;28;20476;-63
2021/10/31 15:34:42;;;;;;;26.47;23.77;;;14.60;63.50;;;;;;6325817;28;20603;-64
2021/10/31 15:37:45;;;;;;;25.07;22.37;;;14.50;64.10;;;;;;6325650;28;20464;-64
2021/10/31 15:40:49;;;;;;;25.67;22.73;;;14.40;64.80;;;;;;6326058;28;20479;-64
2021/10/31 15:43:53;;;;;;;24.40;21.90;;;14.20;65.50;;;;;;6325845;28;20542;-64
2021/10/31 15:46:59;;;;;;;27.40;24.60;;;14.10;66.30;;;;;;6326031;28;21006;-65
2021/10/31 15:50:03;;;;;;;28.93;23.00;;;14.00;67.30;;;;;;6325686;28;20480;-65